createdAt,value
2019-03-01T00:01:16.580Z,17.03
2019-03-01T00:03:43.988Z,17.20
2019-03-01T00:06:27.321Z,17.67
2019-03-01T00:09:40.535Z,17.03
2019-03-01T00:12:38.692Z,16.63
2019-03-01T00:15:33.480Z,16.10
2019-03-01T00:18:14.436Z,14.20
2019-03-01T00:21:22.781Z,15.80
2019-03-01T00:24:03.360Z,14.70
2019-03-01T00:26:44.333Z,15.70
2019-03-01T00:29:40.217Z,15.40
2019-03-01T00:32:30.010Z,15.83
2019-03-01T00:35:35.205Z,14.23
2019-03-01T00:38:39.607Z,15.03
2019-03-01T00:41:31.522Z,15.40
2019-03-01T00:44:39.276Z,14.60
2019-03-01T00:47:05.795Z,13.63
2019-03-01T00:49:32.522Z,13.57
2019-03-01T00:51:58.992Z,13.53
2019-03-01T00:54:25.473Z,11.73
2019-03-01T00:56:51.830Z,11.13
2019-03-01T00:59:18.487Z,11.40
2019-03-01T01:01:44.976Z,11.33
2019-03-01T01:04:11.712Z,10.57
2019-03-01T01:06:38.226Z,11.37
2019-03-01T01:09:06.055Z,11.90
2019-03-01T01:11:32.437Z,11.23
2019-03-01T01:13:58.832Z,12.33
2019-03-01T01:16:25.458Z,12.47
2019-03-01T01:18:51.886Z,13.63
2019-03-01T01:21:18.293Z,13.53
2019-03-01T01:23:44.912Z,15.37
2019-03-01T01:26:11.400Z,14.40
2019-03-01T01:28:37.681Z,13.40
2019-03-01T01:31:04.321Z,12.70
2019-03-01T01:33:30.807Z,12.03
2019-03-01T01:35:57.355Z,11.43
2019-03-01T01:38:23.877Z,12.73
2019-03-01T01:40:50.391Z,11.00
2019-03-01T01:43:16.896Z,12.03
2019-03-01T01:45:43.312Z,13.00
2019-03-01T01:48:09.813Z,12.37
2019-03-01T01:50:36.145Z,13.10
2019-03-01T01:53:02.711Z,12.80
2019-03-01T01:55:29.248Z,14.93
2019-03-01T01:57:55.835Z,14.80
2019-03-01T02:00:22.285Z,16.30
2019-03-01T02:02:48.776Z,16.57
2019-03-01T02:05:15.252Z,17.40
2019-03-01T02:07:41.892Z,17.97
2019-03-01T02:10:09.311Z,17.87
2019-03-01T02:12:36.155Z,17.20
2019-03-01T02:15:07.010Z,16.00
2019-03-01T02:17:33.340Z,15.77
2019-03-01T02:19:59.865Z,14.93
2019-03-01T02:22:26.491Z,16.03
2019-03-01T02:24:52.783Z,15.93
2019-03-01T02:27:25.101Z,16.00
2019-03-01T02:29:51.909Z,15.73
2019-03-01T02:32:29.893Z,15.60
2019-03-01T02:34:56.385Z,15.40
2019-03-01T02:37:23.002Z,15.67
2019-03-01T02:39:49.581Z,15.67
2019-03-01T02:42:15.972Z,14.73
2019-03-01T02:44:42.330Z,15.17
2019-03-01T02:47:08.737Z,15.73
2019-03-01T02:49:35.137Z,15.53
2019-03-01T02:52:01.550Z,16.10
2019-03-01T02:54:27.854Z,15.20
2019-03-01T02:56:54.126Z,15.63
2019-03-01T02:59:20.550Z,15.47
2019-03-01T03:01:46.919Z,15.60
2019-03-01T03:04:13.444Z,15.67
2019-03-01T03:06:41.694Z,15.50
2019-03-01T03:09:08.507Z,16.33
2019-03-01T03:11:34.988Z,16.70
2019-03-01T03:14:01.412Z,15.97
2019-03-01T03:16:28.009Z,16.20
2019-03-01T03:18:54.340Z,17.80
2019-03-01T03:21:20.732Z,17.43
2019-03-01T03:23:47.147Z,17.37
2019-03-01T03:26:13.617Z,17.20
2019-03-01T03:28:40.232Z,16.57
2019-03-01T03:31:06.531Z,17.07
2019-03-01T03:33:32.997Z,16.73
2019-03-01T03:35:59.405Z,17.37
2019-03-01T03:38:25.792Z,17.93
2019-03-01T03:40:52.322Z,19.03
2019-03-01T03:43:18.807Z,18.93
2019-03-01T03:45:45.320Z,19.00
2019-03-01T03:48:11.690Z,19.10
2019-03-01T03:50:38.257Z,17.50
2019-03-01T03:53:04.827Z,19.47
2019-03-01T03:55:31.451Z,20.53
2019-03-01T03:57:58.042Z,19.83
2019-03-01T04:00:24.774Z,20.53
2019-03-01T04:02:51.550Z,21.57
2019-03-01T04:05:18.069Z,22.03
2019-03-01T04:07:45.177Z,21.60
2019-03-01T04:10:12.233Z,22.13
2019-03-01T04:12:38.845Z,22.17
2019-03-01T04:15:09.910Z,22.10
2019-03-01T04:17:36.454Z,22.70
2019-03-01T04:20:07.650Z,22.00
2019-03-01T04:22:34.097Z,22.43
2019-03-01T04:25:00.598Z,23.20
2019-03-01T04:27:27.027Z,22.37
2019-03-01T04:29:53.438Z,23.87
2019-03-01T04:32:19.824Z,24.33
2019-03-01T04:34:46.222Z,24.60
2019-03-01T04:37:12.690Z,24.43
2019-03-01T04:39:39.078Z,24.53
2019-03-01T04:42:05.621Z,24.90
2019-03-01T04:44:32.182Z,24.37
2019-03-01T04:46:58.701Z,23.13
2019-03-01T04:49:25.312Z,24.20
2019-03-01T04:51:51.732Z,24.33
2019-03-01T04:54:18.030Z,22.80
2019-03-01T04:56:44.772Z,24.27
2019-03-01T04:59:11.172Z,24.13
2019-03-01T05:01:37.624Z,22.67
2019-03-01T05:04:04.334Z,23.47
2019-03-01T05:06:30.932Z,24.77
2019-03-01T05:08:57.358Z,26.00
2019-03-01T05:11:23.806Z,26.67
2019-03-01T05:13:50.174Z,26.73
2019-03-01T05:16:16.521Z,28.33
2019-03-01T05:18:42.957Z,32.67
2019-03-01T05:21:09.342Z,32.97
2019-03-01T05:23:35.788Z,34.30
2019-03-01T05:26:02.089Z,33.70
2019-03-01T05:28:28.611Z,34.63
2019-03-01T05:30:55.009Z,35.03
2019-03-01T05:33:21.438Z,35.50
2019-03-01T05:35:47.731Z,35.90
2019-03-01T05:38:21.530Z,35.57
2019-03-01T05:40:42.482Z,35.30
2019-03-01T05:43:09.007Z,33.97
2019-03-01T05:45:35.516Z,33.93
2019-03-01T05:48:01.814Z,35.13
2019-03-01T05:50:28.216Z,34.53
2019-03-01T05:52:54.841Z,33.90
2019-03-01T05:55:21.372Z,35.10
2019-03-01T05:58:27.858Z,32.43
2019-03-01T06:01:08.742Z,33.30
2019-03-01T06:04:07.645Z,32.83
2019-03-01T06:06:51.623Z,32.70
2019-03-01T06:09:55.579Z,33.63
2019-03-01T06:12:45.672Z,33.20
2019-03-01T06:15:54.414Z,34.03
2019-03-01T06:18:41.351Z,33.67
2019-03-01T06:22:07.031Z,34.77
2019-03-01T06:25:06.431Z,35.43
2019-03-01T06:27:56.208Z,36.27
2019-03-01T06:31:06.383Z,36.20
2019-03-01T06:33:41.344Z,37.13
2019-03-01T06:36:37.601Z,38.60
2019-03-01T06:39:19.780Z,38.70
2019-03-01T06:42:05.732Z,36.90
2019-03-01T06:45:13.174Z,40.13
2019-03-01T06:47:46.778Z,39.47
2019-03-01T06:50:21.194Z,39.17
2019-03-01T06:52:47.844Z,39.57
2019-03-01T06:55:34.509Z,40.00
2019-03-01T06:58:05.078Z,40.07
2019-03-01T07:00:33.460Z,40.40
2019-03-01T07:03:00.782Z,42.07
2019-03-01T07:05:27.177Z,41.60
2019-03-01T07:07:53.730Z,43.40
2019-03-01T07:10:20.238Z,40.27
2019-03-01T07:12:46.551Z,40.67
2019-03-01T07:15:13.050Z,42.73
2019-03-01T07:17:39.466Z,42.17
2019-03-01T07:20:08.692Z,41.93
2019-03-01T07:22:35.519Z,40.97
2019-03-01T07:25:03.721Z,40.93
2019-03-01T07:27:30.141Z,42.00
2019-03-01T07:29:56.517Z,42.43
2019-03-01T07:32:22.910Z,42.10
2019-03-01T07:34:49.412Z,40.83
2019-03-01T07:37:15.932Z,40.17
2019-03-01T07:39:42.344Z,40.40
2019-03-01T07:42:08.623Z,40.37
2019-03-01T07:44:35.059Z,40.63
2019-03-01T07:47:01.598Z,41.03
2019-03-01T07:49:27.952Z,42.43
2019-03-01T07:51:54.484Z,43.20
2019-03-01T07:54:22.416Z,43.70
2019-03-01T07:56:49.249Z,46.17
2019-03-01T07:59:15.552Z,45.87
2019-03-01T08:01:41.886Z,46.43
2019-03-01T08:04:08.405Z,46.93
2019-03-01T08:06:35.094Z,50.87
2019-03-01T08:09:01.550Z,49.60
2019-03-01T08:11:28.486Z,49.43
2019-03-01T08:13:56.587Z,52.50
2019-03-01T08:16:25.160Z,52.37
2019-03-01T08:18:51.224Z,53.10
2019-03-01T08:21:17.757Z,52.83
2019-03-01T08:23:44.246Z,51.97
2019-03-01T08:26:10.721Z,56.17
2019-03-01T08:28:37.138Z,56.03
2019-03-01T08:31:04.623Z,57.90
2019-03-01T08:33:31.439Z,57.63
2019-03-01T08:35:58.018Z,60.47
2019-03-01T08:38:25.496Z,60.63
2019-03-01T08:40:54.529Z,61.40
2019-03-01T08:43:21.116Z,60.47
2019-03-01T08:45:47.715Z,64.73
2019-03-01T08:48:14.412Z,65.23
2019-03-01T08:50:40.934Z,71.60
2019-03-01T08:53:07.412Z,76.40
2019-03-01T08:55:35.628Z,74.63
2019-03-01T08:58:06.068Z,72.60
2019-03-01T09:00:41.564Z,71.83
2019-03-01T09:03:17.233Z,77.10
2019-03-01T09:05:42.177Z,75.43
2019-03-01T09:08:08.682Z,74.87
2019-03-01T09:10:35.292Z,75.60
2019-03-01T09:13:01.727Z,78.93
2019-03-01T09:15:28.238Z,79.67
2019-03-01T09:17:54.917Z,83.40
2019-03-01T09:20:21.358Z,87.50
2019-03-01T09:22:47.863Z,92.67
2019-03-01T09:25:14.372Z,91.23
2019-03-01T09:27:41.074Z,96.37
2019-03-01T09:30:18.353Z,97.60
2019-03-01T09:32:44.912Z,101.67
2019-03-01T09:35:25.787Z,100.33
2019-03-01T09:37:52.372Z,98.43
2019-03-01T09:40:18.913Z,93.03
2019-03-01T09:42:47.500Z,82.97
2019-03-01T09:45:14.317Z,82.93
2019-03-01T09:47:41.061Z,82.87
2019-03-01T09:50:10.528Z,74.17
2019-03-01T09:52:37.031Z,72.50
2019-03-01T09:55:07.428Z,67.37
2019-03-01T09:57:33.996Z,68.00
2019-03-01T10:00:00.597Z,66.07
2019-03-01T10:02:26.974Z,69.03
2019-03-01T10:04:53.612Z,69.03
2019-03-01T10:07:20.226Z,74.03
2019-03-01T10:09:46.793Z,69.37
2019-03-01T10:12:13.196Z,77.73
2019-03-01T10:14:39.724Z,72.57
2019-03-01T10:17:06.323Z,72.27
2019-03-01T10:19:32.986Z,72.07
2019-03-01T10:21:59.418Z,71.93
2019-03-01T10:24:25.997Z,72.00
2019-03-01T10:26:52.598Z,69.80
2019-03-01T10:29:19.084Z,68.97
2019-03-01T10:31:45.654Z,71.00
2019-03-01T10:34:12.043Z,68.67
2019-03-01T10:36:38.502Z,71.23
2019-03-01T10:39:10.544Z,73.10
2019-03-01T10:41:37.072Z,71.77
2019-03-01T10:44:03.568Z,72.87
2019-03-01T10:46:29.883Z,71.63
2019-03-01T10:48:57.291Z,72.77
2019-03-01T10:51:23.753Z,71.93
2019-03-01T10:53:50.149Z,71.93
2019-03-01T10:56:16.714Z,66.03
2019-03-01T10:58:43.248Z,65.23
2019-03-01T11:01:09.957Z,60.37
2019-03-01T11:03:36.491Z,59.57
2019-03-01T11:06:03.138Z,62.07
2019-03-01T11:08:29.552Z,56.07
2019-03-01T11:10:56.019Z,57.47
2019-03-01T11:13:22.622Z,53.47
2019-03-01T11:15:49.232Z,53.47
2019-03-01T11:18:15.889Z,51.47
2019-03-01T11:20:42.336Z,50.13
2019-03-01T11:23:08.883Z,51.50
2019-03-01T11:25:35.482Z,46.80
2019-03-01T11:28:02.177Z,46.27
2019-03-01T11:30:34.826Z,44.03
2019-03-01T11:33:01.490Z,43.80
2019-03-01T11:35:28.197Z,45.40
2019-03-01T11:37:54.873Z,44.37
2019-03-01T11:40:38.237Z,44.90
2019-03-01T11:43:05.468Z,42.73
2019-03-01T11:45:32.104Z,45.13
2019-03-01T11:47:58.798Z,47.13
2019-03-01T11:50:25.530Z,45.13
2019-03-01T11:52:52.662Z,46.20
2019-03-01T11:55:19.905Z,43.77
2019-03-01T11:57:46.698Z,44.27
2019-03-01T12:00:16.642Z,43.47
2019-03-01T12:02:43.488Z,42.57
2019-03-01T12:05:11.291Z,43.60
2019-03-01T12:07:37.977Z,44.47
2019-03-01T12:10:12.640Z,44.77
2019-03-01T12:12:39.259Z,43.73
2019-03-01T12:15:08.855Z,42.90
2019-03-01T12:17:35.466Z,45.13
2019-03-01T12:20:02.559Z,42.73
2019-03-01T12:22:29.197Z,43.83
2019-03-01T12:24:55.652Z,43.03
2019-03-01T12:27:22.262Z,43.97
2019-03-01T12:29:48.989Z,42.50
2019-03-01T12:32:15.618Z,36.80
2019-03-01T12:34:42.178Z,31.33
2019-03-01T12:37:08.785Z,27.33
2019-03-01T12:39:35.447Z,26.83
2019-03-01T12:42:02.124Z,25.57
2019-03-01T12:44:28.751Z,24.70
2019-03-01T12:46:55.395Z,23.27
2019-03-01T12:49:22.005Z,22.87
2019-03-01T12:51:48.733Z,20.33
2019-03-01T12:54:15.237Z,20.10
2019-03-01T12:56:41.898Z,20.60
2019-03-01T12:59:08.568Z,18.03
2019-03-01T13:01:35.226Z,17.47
2019-03-01T13:04:01.781Z,17.13
2019-03-01T13:06:28.218Z,19.57
2019-03-01T13:08:54.607Z,20.30
2019-03-01T13:11:21.247Z,20.33
2019-03-01T13:13:47.820Z,19.77
2019-03-01T13:16:14.390Z,20.43
2019-03-01T13:18:40.924Z,20.37
2019-03-01T13:21:09.616Z,20.27
2019-03-01T13:23:37.536Z,20.73
2019-03-01T13:26:06.172Z,21.77
2019-03-01T13:28:33.148Z,21.87
2019-03-01T13:30:59.711Z,21.53
2019-03-01T13:33:26.294Z,21.10
2019-03-01T13:35:52.823Z,22.40
2019-03-01T13:38:19.643Z,20.27
2019-03-01T13:40:46.309Z,19.27
2019-03-01T13:43:12.927Z,18.77
2019-03-01T13:45:39.610Z,16.73
2019-03-01T13:48:06.162Z,17.80
2019-03-01T13:50:32.597Z,17.20
2019-03-01T13:52:59.289Z,17.00
2019-03-01T13:55:27.613Z,16.93
2019-03-01T13:57:54.430Z,16.83
2019-03-01T14:00:21.533Z,18.20
2019-03-01T14:02:48.595Z,17.70
2019-03-01T14:05:17.357Z,17.63
2019-03-01T14:07:44.741Z,17.20
2019-03-01T14:10:21.381Z,17.23
2019-03-01T14:12:48.022Z,16.23
2019-03-01T14:15:16.394Z,17.57
2019-03-01T14:17:43.028Z,16.83
2019-03-01T14:20:21.010Z,17.40
2019-03-01T14:22:49.182Z,16.70
2019-03-01T14:25:15.921Z,17.50
2019-03-01T14:27:42.635Z,17.37
2019-03-01T14:30:25.309Z,17.13
2019-03-01T14:32:56.892Z,17.83
2019-03-01T14:35:25.772Z,18.37
2019-03-01T14:37:54.145Z,19.63
2019-03-01T14:40:19.156Z,20.60
2019-03-01T14:42:47.687Z,19.53
2019-03-01T14:45:20.544Z,19.70
2019-03-01T14:47:47.404Z,19.63
2019-03-01T14:50:18.102Z,18.60
2019-03-01T14:52:44.804Z,17.50
2019-03-01T14:55:22.752Z,18.53
2019-03-01T14:57:53.462Z,18.30
2019-03-01T15:00:28.880Z,17.73
2019-03-01T15:03:32.354Z,17.80
2019-03-01T15:05:59.007Z,19.70
2019-03-01T15:08:25.646Z,20.30
2019-03-01T15:10:52.384Z,20.73
2019-03-01T15:13:18.948Z,20.13
2019-03-01T15:15:45.645Z,21.80
2019-03-01T15:18:12.373Z,21.33
2019-03-01T15:20:39.142Z,21.83
2019-03-01T15:23:05.747Z,20.47
2019-03-01T15:25:32.177Z,21.20
2019-03-01T15:27:58.909Z,20.20
2019-03-01T15:30:25.652Z,20.37
2019-03-01T15:32:52.592Z,21.47
2019-03-01T15:35:19.300Z,19.47
2019-03-01T15:37:45.735Z,21.00
2019-03-01T15:40:12.848Z,19.73
2019-03-01T15:42:39.408Z,20.07
2019-03-01T15:45:10.646Z,19.57
2019-03-01T15:47:37.348Z,20.47
2019-03-01T15:50:09.900Z,19.93
2019-03-01T15:52:36.540Z,19.43
2019-03-01T15:55:11.688Z,21.07
2019-03-01T15:57:36.295Z,19.90
2019-03-01T16:00:10.511Z,19.53
2019-03-01T16:02:37.160Z,19.20
2019-03-01T16:05:08.295Z,20.00
2019-03-01T16:07:35.088Z,18.37
2019-03-01T16:10:02.228Z,18.37
2019-03-01T16:12:32.423Z,19.03
2019-03-01T16:15:00.497Z,18.23
2019-03-01T16:17:26.114Z,18.23
2019-03-01T16:19:53.575Z,17.80
2019-03-01T16:22:20.336Z,16.73
2019-03-01T16:24:46.983Z,16.97
2019-03-01T16:27:15.347Z,16.27
2019-03-01T16:29:43.238Z,16.23
2019-03-01T16:32:09.792Z,15.93
2019-03-01T16:34:37.647Z,15.63
2019-03-01T16:37:04.920Z,15.73
2019-03-01T16:39:31.505Z,16.13
2019-03-01T16:41:58.145Z,14.53
2019-03-01T16:44:24.756Z,14.73
2019-03-01T16:46:51.354Z,14.83
2019-03-01T16:49:18.083Z,13.37
2019-03-01T16:51:44.648Z,14.47
2019-03-01T16:54:15.282Z,13.73
2019-03-01T16:56:39.881Z,13.17
2019-03-01T16:59:07.277Z,13.37
2019-03-01T17:01:34.087Z,11.23
2019-03-01T17:04:00.808Z,11.83
2019-03-01T17:06:27.638Z,11.63
2019-03-01T17:08:54.426Z,10.70
2019-03-01T17:11:21.268Z,9.57
2019-03-01T17:13:47.874Z,10.03
2019-03-01T17:16:14.630Z,9.27
2019-03-01T17:18:41.268Z,10.10
2019-03-01T17:21:08.746Z,9.83
2019-03-01T17:23:35.909Z,8.97
2019-03-01T17:26:04.375Z,9.03
2019-03-01T17:28:30.888Z,8.23
2019-03-01T17:30:58.270Z,8.27
2019-03-01T17:33:25.203Z,9.33
2019-03-01T17:35:52.124Z,8.93
2019-03-01T17:38:20.785Z,8.27
2019-03-01T17:40:47.535Z,8.53
2019-03-01T17:43:14.168Z,8.30
2019-03-01T17:45:40.833Z,8.20
2019-03-01T17:48:07.585Z,7.73
2019-03-01T17:50:34.172Z,7.00
2019-03-01T17:53:00.702Z,6.23
2019-03-01T17:55:27.576Z,7.40
2019-03-01T17:57:54.134Z,6.80
2019-03-01T18:00:31.160Z,6.50
2019-03-01T18:02:57.936Z,5.90
2019-03-01T18:05:25.155Z,6.67
2019-03-01T18:07:51.880Z,6.77
2019-03-01T18:10:19.066Z,7.10
2019-03-01T18:12:45.923Z,6.57
2019-03-01T18:15:14.300Z,6.50
2019-03-01T18:17:40.942Z,5.90
2019-03-01T18:20:10.305Z,5.90
2019-03-01T18:22:37.085Z,5.70
2019-03-01T18:25:08.738Z,5.20
2019-03-01T18:27:35.718Z,5.63
2019-03-01T18:30:21.089Z,6.33
2019-03-01T18:32:47.862Z,5.97
2019-03-01T18:35:14.518Z,7.43
2019-03-01T18:37:41.182Z,7.07
2019-03-01T18:40:16.553Z,6.70
2019-03-01T18:42:41.370Z,6.67
2019-03-01T18:45:17.035Z,6.30
2019-03-01T18:47:43.895Z,6.47
2019-03-01T18:50:32.516Z,7.00
2019-03-01T18:53:00.863Z,6.20
2019-03-01T18:55:27.534Z,7.23
2019-03-01T18:57:54.120Z,7.17
2019-03-01T19:00:32.487Z,6.80
2019-03-01T19:03:04.142Z,6.80
2019-03-01T19:05:31.753Z,6.57
2019-03-01T19:08:00.856Z,7.20
2019-03-01T19:10:27.764Z,6.70
2019-03-01T19:12:55.641Z,6.17
2019-03-01T19:15:22.465Z,6.80
2019-03-01T19:17:54.732Z,5.80
2019-03-01T19:20:37.992Z,5.90
2019-03-01T19:23:03.497Z,6.17
2019-03-01T19:25:30.403Z,5.57
2019-03-01T19:28:06.053Z,5.90
2019-03-01T19:30:39.676Z,5.23
2019-03-01T19:33:12.369Z,5.30
2019-03-01T19:35:47.817Z,5.10
2019-03-01T19:38:25.156Z,5.10
2019-03-01T19:40:59.645Z,5.20
2019-03-01T19:43:35.756Z,5.00
2019-03-01T19:46:12.665Z,5.10
2019-03-01T19:48:50.890Z,5.20
2019-03-01T19:51:28.655Z,6.10
2019-03-01T19:54:08.417Z,5.30
2019-03-01T19:56:50.567Z,5.27
2019-03-01T19:59:27.036Z,5.27
2019-03-01T20:02:05.556Z,5.97
2019-03-01T20:04:34.821Z,5.77
2019-03-01T20:07:10.588Z,5.07
2019-03-01T20:09:50.479Z,5.63
2019-03-01T20:12:31.090Z,6.00
2019-03-01T20:14:58.888Z,5.53
2019-03-01T20:17:26.063Z,5.27
2019-03-01T20:19:53.563Z,7.87
2019-03-01T20:22:21.985Z,9.53
2019-03-01T20:24:49.199Z,9.57
2019-03-01T20:27:16.199Z,8.60
2019-03-01T20:29:43.469Z,9.20
2019-03-01T20:32:12.530Z,8.87
2019-03-01T20:34:40.030Z,9.77
2019-03-01T20:37:06.875Z,10.40
2019-03-01T20:39:33.943Z,10.83
2019-03-01T20:42:00.906Z,10.17
2019-03-01T20:44:27.749Z,10.60
2019-03-01T20:46:54.503Z,10.43
2019-03-01T20:49:21.364Z,11.03
2019-03-01T20:51:48.282Z,11.70
2019-03-01T20:54:14.946Z,12.50
2019-03-01T20:56:41.979Z,14.17
2019-03-01T20:59:09.028Z,12.90
2019-03-01T21:01:37.233Z,13.37
2019-03-01T21:04:05.736Z,13.73
2019-03-01T21:06:33.951Z,13.83
2019-03-01T21:09:04.116Z,13.87
2019-03-01T21:11:29.855Z,13.60
2019-03-01T21:13:56.818Z,14.83
2019-03-01T21:16:23.965Z,15.23
2019-03-01T21:18:50.954Z,15.13
2019-03-01T21:21:18.168Z,16.33
2019-03-01T21:23:47.641Z,15.60
2019-03-01T21:26:15.617Z,15.73
2019-03-01T21:28:42.777Z,15.10
2019-03-01T21:31:09.699Z,15.27
2019-03-01T21:33:36.688Z,16.83
2019-03-01T21:36:03.519Z,15.73
2019-03-01T21:38:30.424Z,16.27
2019-03-01T21:40:57.376Z,17.50
2019-03-01T21:43:24.337Z,16.70
2019-03-01T21:45:51.169Z,17.23
2019-03-01T21:48:18.651Z,17.17
2019-03-01T21:50:45.896Z,16.33
2019-03-01T21:53:12.731Z,17.03
2019-03-01T21:55:39.373Z,15.17
2019-03-01T21:58:06.619Z,16.33
2019-03-01T22:00:34.902Z,17.00
2019-03-01T22:03:02.024Z,17.23
2019-03-01T22:05:28.770Z,17.80
2019-03-01T22:07:55.371Z,17.40
2019-03-01T22:10:22.096Z,17.63
2019-03-01T22:12:48.955Z,17.90
2019-03-01T22:15:28.041Z,19.00
2019-03-01T22:17:55.073Z,20.57
2019-03-01T22:20:22.283Z,21.13
2019-03-01T22:22:48.745Z,22.53
2019-03-01T22:25:15.432Z,23.63
2019-03-01T22:27:42.974Z,24.50
2019-03-01T22:30:23.825Z,24.00
2019-03-01T22:32:50.732Z,22.83
2019-03-01T22:35:17.255Z,20.80
2019-03-01T22:37:43.965Z,20.57
2019-03-01T22:40:10.838Z,21.60
2019-03-01T22:42:37.463Z,19.53
2019-03-01T22:45:10.465Z,15.10
2019-03-01T22:47:38.643Z,10.93
2019-03-01T22:50:09.706Z,12.07
2019-03-01T22:52:36.414Z,12.10
2019-03-01T22:55:06.425Z,11.40
2019-03-01T22:57:33.970Z,11.57
2019-03-01T23:00:00.370Z,10.27
2019-03-01T23:02:27.146Z,9.80
2019-03-01T23:04:53.744Z,9.53
2019-03-01T23:07:23.481Z,9.20
2019-03-01T23:09:49.346Z,9.07
2019-03-01T23:12:16.032Z,8.90
2019-03-01T23:14:42.642Z,9.37
2019-03-01T23:17:09.089Z,9.53
2019-03-01T23:19:35.614Z,9.00
2019-03-01T23:22:02.203Z,8.90
2019-03-01T23:24:31.651Z,9.60
2019-03-01T23:26:57.757Z,9.00
2019-03-01T23:29:24.406Z,9.23
2019-03-01T23:31:51.071Z,8.73
2019-03-01T23:34:17.619Z,8.97
2019-03-01T23:36:44.516Z,9.00
2019-03-01T23:39:11.150Z,9.30
2019-03-01T23:41:37.740Z,9.37
2019-03-01T23:44:06.576Z,9.07
2019-03-01T23:46:32.701Z,9.40
2019-03-01T23:49:06.077Z,8.73
2019-03-01T23:51:27.356Z,8.37
2019-03-01T23:53:54.099Z,9.10
2019-03-01T23:56:20.659Z,8.53
2019-03-01T23:58:48.006Z,9.13
